createdAt,value
2023-03-04T03:59:05.926Z,456.00
2023-03-04T04:00:05.857Z,439.00
2023-03-04T04:01:05.934Z,436.00
2023-03-04T04:02:06.228Z,435.00
2023-03-04T04:03:06.242Z,438.00
2023-03-04T04:04:06.346Z,438.00
2023-03-04T04:05:07.399Z,436.00
2023-03-04T04:06:07.563Z,435.00
2023-03-04T04:07:08.045Z,436.00
2023-03-04T04:08:07.787Z,435.00
2023-03-04T04:09:07.907Z,433.00
2023-03-04T04:10:07.996Z,430.00
2023-03-04T04:11:08.205Z,431.00
2023-03-04T04:12:08.308Z,432.00
2023-03-04T04:13:08.467Z,435.00
2023-03-04T04:14:08.662Z,438.00
2023-03-04T04:15:08.741Z,439.00
2023-03-04T04:16:08.480Z,439.00
2023-03-04T04:17:08.566Z,441.00
2023-03-04T04:18:09.207Z,441.00
2023-03-04T04:19:09.422Z,440.00
2023-03-04T04:20:09.465Z,439.00
2023-03-04T04:21:09.816Z,437.00
2023-03-04T04:22:09.114Z,439.00
2023-03-04T04:23:09.854Z,439.00
2023-03-04T04:24:10.019Z,440.00
2023-03-04T04:25:10.657Z,440.00
2023-03-04T04:26:10.684Z,440.00
2023-03-04T04:27:10.177Z,442.00
2023-03-04T04:28:10.768Z,443.00
2023-03-04T04:29:09.802Z,445.00
2023-03-04T04:30:09.892Z,444.00
2023-03-04T04:31:10.102Z,443.00
2023-03-04T04:32:11.902Z,443.00
2023-03-04T04:33:11.333Z,444.00
2023-03-04T04:34:10.459Z,443.00
2023-03-04T04:35:10.567Z,443.00
2023-03-04T04:36:10.729Z,441.00
2023-03-04T04:37:11.314Z,440.00
2023-03-04T04:38:11.988Z,440.00
2023-03-04T04:39:13.117Z,439.00
2023-03-04T04:40:12.408Z,437.00
2023-03-04T04:41:13.168Z,435.00
2023-03-04T04:42:11.600Z,433.00
2023-03-04T04:43:13.331Z,433.00
2023-03-04T04:44:12.896Z,433.00
2023-03-04T04:45:12.246Z,433.00
2023-03-04T04:46:13.480Z,434.00
2023-03-04T04:47:13.262Z,434.00
2023-03-04T04:48:13.352Z,435.00
2023-03-04T04:49:12.813Z,437.00
2023-03-04T04:50:13.182Z,436.00
2023-03-04T04:51:12.833Z,435.00
2023-03-04T04:52:13.916Z,435.00
2023-03-04T04:53:13.419Z,433.00
2023-03-04T04:54:14.572Z,434.00
2023-03-04T04:55:13.825Z,435.00
2023-03-04T04:56:13.752Z,435.00
2023-03-04T04:57:14.071Z,437.00
2023-03-04T04:58:13.783Z,436.00
2023-03-04T04:59:13.955Z,436.00
2023-03-04T05:00:15.086Z,436.00
2023-03-04T05:01:14.849Z,435.00
2023-03-04T05:02:15.438Z,435.00
2023-03-04T05:03:18.251Z,434.00
2023-03-04T05:04:15.938Z,431.00
2023-03-04T05:05:15.003Z,430.00
2023-03-04T05:06:14.979Z,432.00
2023-03-04T05:07:16.052Z,431.00
2023-03-04T05:08:15.353Z,431.00
2023-03-04T05:09:16.329Z,434.00
2023-03-04T05:10:17.120Z,432.00
2023-03-04T05:11:16.606Z,431.00
2023-03-04T05:12:17.170Z,431.00
2023-03-04T05:13:16.922Z,434.00
2023-03-04T05:14:17.050Z,433.00
2023-03-04T05:15:17.220Z,432.00
2023-03-04T05:16:17.417Z,431.00
2023-03-04T05:17:16.547Z,430.00
2023-03-04T05:18:17.720Z,433.00
2023-03-04T05:19:17.857Z,437.00
2023-03-04T05:20:17.871Z,438.00
2023-03-04T05:21:17.976Z,441.00
2023-03-04T05:24:34.534Z,454.00
2023-03-04T05:25:34.625Z,452.00
2023-03-04T05:26:34.692Z,451.00
2023-03-04T05:27:35.665Z,450.00
2023-03-04T05:28:35.082Z,448.00
2023-03-04T05:29:35.664Z,446.00
2023-03-04T05:30:35.159Z,445.00
2023-03-04T05:31:35.247Z,444.00
2023-03-04T05:32:35.021Z,441.00
2023-03-04T05:33:35.313Z,440.00
2023-03-04T05:34:35.724Z,439.00
2023-03-04T05:35:35.854Z,437.00
2023-03-04T05:36:35.014Z,436.00
2023-03-04T05:37:35.404Z,437.00
2023-03-04T05:38:35.321Z,436.00
2023-03-04T05:39:37.004Z,438.00
2023-03-04T05:40:35.773Z,437.00
2023-03-04T05:41:37.089Z,438.00
2023-03-04T05:42:35.854Z,442.00
2023-03-04T05:43:36.069Z,444.00
2023-03-04T05:44:36.581Z,444.00
2023-03-04T05:45:37.720Z,442.00
2023-03-04T05:46:37.844Z,441.00
2023-03-04T05:47:38.343Z,440.00
2023-03-04T05:48:36.601Z,442.00
2023-03-04T05:49:36.794Z,440.00
2023-03-04T05:50:38.400Z,440.00
2023-03-04T05:51:37.012Z,441.00
2023-03-04T05:52:37.482Z,442.00
2023-03-04T05:53:38.592Z,442.00
2023-03-04T05:54:38.446Z,440.00
2023-03-04T05:55:38.549Z,438.00
2023-03-04T05:56:38.700Z,438.00
2023-03-04T05:57:38.310Z,438.00
2023-03-04T05:58:39.222Z,439.00
2023-03-04T05:59:39.110Z,439.00
2023-03-04T06:00:38.367Z,441.00
2023-03-04T06:01:38.450Z,442.00
2023-03-04T06:02:39.871Z,441.00
2023-03-04T06:03:39.888Z,438.00
2023-03-04T06:04:39.067Z,437.00
2023-03-04T06:05:39.085Z,434.00
2023-03-04T06:06:40.091Z,435.00
2023-03-04T06:07:40.649Z,437.00
2023-03-04T06:08:40.415Z,438.00
2023-03-04T06:09:41.067Z,438.00
2023-03-04T06:10:40.140Z,438.00
2023-03-04T06:11:40.960Z,440.00
2023-03-04T06:12:40.068Z,440.00
2023-03-04T06:13:41.169Z,438.00
2023-03-04T06:14:40.683Z,438.00
2023-03-04T06:15:40.349Z,437.00
2023-03-04T06:16:40.783Z,437.00
2023-03-04T06:17:42.387Z,435.00
2023-03-04T06:18:41.143Z,434.00
2023-03-04T06:19:40.908Z,433.00
2023-03-04T06:20:41.320Z,433.00
2023-03-04T06:21:42.568Z,433.00
2023-03-04T06:22:44.442Z,432.00
2023-03-04T06:23:42.530Z,433.00
2023-03-04T06:24:42.078Z,432.00
2023-03-04T06:25:43.297Z,432.00
2023-03-04T06:26:43.621Z,433.00
2023-03-04T06:27:42.019Z,434.00
2023-03-04T06:28:43.367Z,435.00
2023-03-04T06:29:43.326Z,437.00
2023-03-04T06:30:43.912Z,435.00
2023-03-04T06:31:43.680Z,435.00
2023-03-04T06:32:42.935Z,434.00
2023-03-04T06:33:44.259Z,434.00
2023-03-04T06:34:43.866Z,436.00
2023-03-04T06:35:43.632Z,437.00
2023-03-04T06:36:44.252Z,436.00
2023-03-04T06:37:44.238Z,434.00
2023-03-04T06:38:44.717Z,435.00
2023-03-04T06:39:44.724Z,436.00
2023-03-04T06:40:43.804Z,437.00
2023-03-04T06:41:45.220Z,436.00
2023-03-04T06:42:44.033Z,434.00
2023-03-04T06:43:45.074Z,435.00
2023-03-04T06:44:44.553Z,435.00
2023-03-04T06:45:44.457Z,434.00
2023-03-04T06:46:44.647Z,436.00
2023-03-04T06:47:45.001Z,434.00
2023-03-04T06:51:04.773Z,456.00
2023-03-04T06:52:02.144Z,445.00
2023-03-04T06:53:02.272Z,442.00
2023-03-04T06:54:02.314Z,444.00
2023-03-04T06:55:01.505Z,447.00
2023-03-04T06:56:02.555Z,450.00
2023-03-04T06:57:02.248Z,453.00
2023-03-04T06:58:02.457Z,452.00
2023-03-04T06:59:02.057Z,450.00
2023-03-04T07:00:03.436Z,451.00
2023-03-04T07:01:02.653Z,453.00
2023-03-04T07:02:02.473Z,453.00
2023-03-04T07:03:02.697Z,452.00
2023-03-04T07:04:02.824Z,452.00
2023-03-04T07:05:03.013Z,453.00
2023-03-04T07:06:03.456Z,453.00
2023-03-04T07:07:03.437Z,450.00
2023-03-04T07:08:03.543Z,449.00
2023-03-04T07:09:04.472Z,450.00
2023-03-04T07:10:04.079Z,447.00
2023-03-04T07:11:03.792Z,446.00
2023-03-04T07:12:03.885Z,443.00
2023-03-04T07:13:04.241Z,440.00
2023-03-04T07:14:04.642Z,441.00
2023-03-04T07:15:05.211Z,442.00
2023-03-04T07:16:04.758Z,441.00
2023-03-04T07:17:04.845Z,439.00
2023-03-04T07:18:05.658Z,439.00
2023-03-04T07:19:05.764Z,441.00
2023-03-04T07:20:05.901Z,440.00
2023-03-04T07:21:05.516Z,441.00
2023-03-04T07:22:05.263Z,441.00
2023-03-04T07:23:05.499Z,443.00
2023-03-04T07:24:05.509Z,441.00
2023-03-04T07:25:05.653Z,440.00
2023-03-04T07:26:05.724Z,440.00
2023-03-04T07:27:06.348Z,441.00
2023-03-04T07:28:07.399Z,440.00
2023-03-04T07:29:07.406Z,436.00
2023-03-04T07:30:07.169Z,436.00
2023-03-04T07:31:06.851Z,436.00
2023-03-04T07:32:07.161Z,437.00
2023-03-04T07:33:06.701Z,438.00
2023-03-04T07:34:07.097Z,438.00
2023-03-04T07:35:07.098Z,441.00
2023-03-04T07:36:07.637Z,442.00
2023-03-04T07:37:07.488Z,442.00
2023-03-04T07:38:07.540Z,443.00
2023-03-04T07:39:07.564Z,442.00
2023-03-04T07:40:07.646Z,440.00
2023-03-04T07:41:07.760Z,437.00
2023-03-04T07:42:07.969Z,437.00
2023-03-04T07:43:08.078Z,437.00
2023-03-04T07:44:08.156Z,437.00
2023-03-04T07:45:08.300Z,439.00
2023-03-04T07:46:08.451Z,439.00
2023-03-04T07:47:08.614Z,439.00
2023-03-04T07:48:08.650Z,438.00
2023-03-04T07:49:08.777Z,438.00
2023-03-04T07:50:09.054Z,438.00
2023-03-04T07:51:09.160Z,439.00
2023-03-04T07:52:09.356Z,438.00
2023-03-04T07:53:09.280Z,438.00
2023-03-04T07:54:09.587Z,439.00
2023-03-04T07:55:09.577Z,442.00
2023-03-04T07:56:09.919Z,440.00
2023-03-04T07:57:09.907Z,442.00
2023-03-04T07:58:10.056Z,444.00
2023-03-04T07:59:10.337Z,444.00
2023-03-04T08:00:10.248Z,441.00
2023-03-04T08:01:10.558Z,440.00
2023-03-04T08:02:10.534Z,442.00
2023-03-04T08:03:10.560Z,441.00
2023-03-04T08:04:10.806Z,440.00
2023-03-04T08:05:10.976Z,440.00
2023-03-04T08:06:10.995Z,436.00
2023-03-04T08:07:11.522Z,437.00
2023-03-04T08:08:11.436Z,437.00
2023-03-04T08:11:28.136Z,441.00
2023-03-04T08:12:27.868Z,452.00
2023-03-04T08:13:28.056Z,456.00
2023-03-04T08:14:28.035Z,453.00
2023-03-04T08:15:28.120Z,454.00
2023-03-04T08:16:28.504Z,454.00
2023-03-04T08:17:28.475Z,451.00
2023-03-04T08:18:28.493Z,448.00
2023-03-04T08:19:28.705Z,449.00
2023-03-04T08:20:28.733Z,448.00
2023-03-04T08:21:28.860Z,449.00
2023-03-04T08:22:28.984Z,449.00
2023-03-04T08:23:29.142Z,448.00
2023-03-04T08:24:29.266Z,449.00
2023-03-04T08:25:29.652Z,449.00
2023-03-04T08:26:29.683Z,448.00
2023-03-04T08:27:30.069Z,448.00
2023-03-04T08:28:30.181Z,447.00
2023-03-04T08:29:29.991Z,449.00
2023-03-04T08:30:30.036Z,450.00
2023-03-04T08:31:30.745Z,449.00
2023-03-04T08:32:31.715Z,446.00
2023-03-04T08:33:31.470Z,445.00
2023-03-04T08:34:30.628Z,443.00
2023-03-04T08:35:30.805Z,445.00
2023-03-04T08:36:32.615Z,446.00
2023-03-04T08:37:31.608Z,446.00
2023-03-04T08:38:32.299Z,444.00
2023-03-04T08:39:32.209Z,445.00
2023-03-04T08:40:32.415Z,443.00
2023-03-04T08:41:32.527Z,443.00
2023-03-04T08:42:32.829Z,444.00
2023-03-04T08:43:32.529Z,444.00
2023-03-04T08:44:31.919Z,443.00
2023-03-04T08:45:32.442Z,442.00
2023-03-04T08:46:33.330Z,441.00
2023-03-04T08:47:33.497Z,440.00
2023-03-04T08:48:34.028Z,439.00
2023-03-04T08:49:33.619Z,438.00
2023-03-04T08:50:32.809Z,438.00
2023-03-04T08:51:33.908Z,436.00
2023-03-04T08:52:33.118Z,435.00
2023-03-04T08:53:33.428Z,434.00
2023-03-04T08:54:35.189Z,433.00
2023-03-04T08:55:34.448Z,433.00
2023-03-04T08:56:34.608Z,432.00
2023-03-04T08:57:33.778Z,433.00
2023-03-04T08:58:34.988Z,433.00
2023-03-04T08:59:35.491Z,434.00
2023-03-04T09:00:34.251Z,434.00
2023-03-04T09:01:34.696Z,434.00
2023-03-04T09:02:34.607Z,435.00
2023-03-04T09:03:34.768Z,437.00
2023-03-04T09:04:34.925Z,436.00
2023-03-04T09:05:34.912Z,439.00
2023-03-04T09:06:35.338Z,439.00
2023-03-04T09:07:35.166Z,438.00
2023-03-04T09:08:35.265Z,438.00
2023-03-04T09:09:35.474Z,437.00
2023-03-04T09:10:35.723Z,438.00
2023-03-04T09:11:35.704Z,438.00
2023-03-04T09:12:35.779Z,439.00
2023-03-04T09:13:35.917Z,441.00
2023-03-04T09:14:36.029Z,441.00
2023-03-04T09:15:36.190Z,439.00
2023-03-04T09:16:36.337Z,437.00
2023-03-04T09:17:36.577Z,437.00
2023-03-04T09:18:36.782Z,438.00
2023-03-04T09:19:36.965Z,440.00
2023-03-04T09:20:36.972Z,443.00
2023-03-04T09:21:37.186Z,443.00
2023-03-04T09:22:37.205Z,444.00
2023-03-04T09:23:37.436Z,444.00
2023-03-04T09:24:37.705Z,444.00
2023-03-04T09:25:37.955Z,445.00
2023-03-04T09:26:38.382Z,447.00
2023-03-04T09:27:38.986Z,447.00
2023-03-04T09:28:38.485Z,445.00
2023-03-04T09:29:38.266Z,443.00
2023-03-04T09:30:38.594Z,446.00
2023-03-04T09:31:38.905Z,448.00
2023-03-04T09:32:38.946Z,445.00
2023-03-04T09:33:38.783Z,443.00
2023-03-04T09:34:38.933Z,443.00
2023-03-04T09:37:55.605Z,451.00
2023-03-04T09:38:55.617Z,449.00
2023-03-04T09:39:55.620Z,451.00
2023-03-04T09:40:55.928Z,452.00
2023-03-04T09:41:55.862Z,453.00
2023-03-04T09:42:56.047Z,449.00
2023-03-04T09:43:56.516Z,450.00
2023-03-04T09:44:56.494Z,449.00
2023-03-04T09:45:56.292Z,452.00
2023-03-04T09:46:56.481Z,452.00
2023-03-04T09:47:56.929Z,452.00
2023-03-04T09:48:57.711Z,454.00
2023-03-04T09:49:57.148Z,453.00
2023-03-04T09:50:57.136Z,452.00
2023-03-04T09:51:57.205Z,451.00
2023-03-04T09:52:57.381Z,450.00
2023-03-04T09:53:57.578Z,448.00
2023-03-04T09:54:57.578Z,447.00
2023-03-04T09:55:57.775Z,446.00
2023-03-04T09:56:57.876Z,446.00
2023-03-04T09:57:58.882Z,445.00
2023-03-04T09:58:58.111Z,445.00
2023-03-04T09:59:58.573Z,446.00
2023-03-04T10:00:58.803Z,445.00
2023-03-04T10:01:58.414Z,441.00
2023-03-04T10:13:21.267Z,451.00
2023-03-04T10:14:21.676Z,442.00
2023-03-04T10:15:21.547Z,442.00
2023-03-04T10:16:21.718Z,440.00
2023-03-04T10:17:22.690Z,442.00
2023-03-04T10:18:21.905Z,443.00
2023-03-04T10:19:22.345Z,441.00
2023-03-04T10:20:22.190Z,439.00
2023-03-04T10:21:22.413Z,439.00
2023-03-04T10:22:22.735Z,439.00
2023-03-04T10:23:22.651Z,438.00
2023-03-04T10:24:23.031Z,437.00
2023-03-04T10:25:22.843Z,437.00
2023-03-04T10:26:23.067Z,438.00
2023-03-04T10:27:23.094Z,438.00
2023-03-04T10:28:23.490Z,438.00
2023-03-04T10:29:23.446Z,439.00
2023-03-04T10:30:23.588Z,438.00
2023-03-04T10:31:25.107Z,435.00
2023-03-04T10:32:24.203Z,432.00
2023-03-04T10:33:24.890Z,433.00
2023-03-04T10:34:25.096Z,432.00
2023-03-04T10:35:25.093Z,431.00
2023-03-04T10:36:24.472Z,432.00
2023-03-04T10:37:24.872Z,431.00
2023-03-04T10:38:26.022Z,431.00
2023-03-04T10:39:25.680Z,431.00
2023-03-04T10:40:26.801Z,431.00
2023-03-04T10:41:25.991Z,431.00
2023-03-04T10:42:26.153Z,435.00
2023-03-04T10:43:25.538Z,432.00
2023-03-04T10:44:26.488Z,429.00
2023-03-04T10:45:26.624Z,431.00
2023-03-04T10:46:25.815Z,430.00
2023-03-04T10:47:26.983Z,430.00
2023-03-04T10:48:27.072Z,430.00
2023-03-04T10:49:26.294Z,428.00
2023-03-04T10:50:26.474Z,428.00
2023-03-04T10:51:26.895Z,430.00
2023-03-04T10:52:27.538Z,431.00
2023-03-04T10:53:26.926Z,431.00
2023-03-04T10:54:26.910Z,429.00
2023-03-04T10:55:27.235Z,430.00
2023-03-04T10:56:27.261Z,431.00
2023-03-04T10:57:27.471Z,431.00
2023-03-04T10:58:27.553Z,431.00
2023-03-04T10:59:27.601Z,428.00
2023-03-04T11:00:27.977Z,430.00
2023-03-04T11:01:28.758Z,430.00
2023-03-04T11:02:27.934Z,428.00
2023-03-04T11:03:29.890Z,428.00
2023-03-04T11:04:28.709Z,431.00
2023-03-04T11:05:28.638Z,430.00
2023-03-04T11:06:28.727Z,431.00
2023-03-04T11:07:28.876Z,431.00
2023-03-04T11:08:28.728Z,429.00
2023-03-04T11:09:29.759Z,428.00
2023-03-04T11:10:28.991Z,427.00
2023-03-04T11:11:29.373Z,428.00
2023-03-04T11:12:29.265Z,431.00
2023-03-04T11:13:29.391Z,434.00
2023-03-04T11:14:29.627Z,434.00
2023-03-04T11:15:31.544Z,434.00
2023-03-04T11:16:29.956Z,434.00
2023-03-04T11:17:30.122Z,437.00
2023-03-04T11:18:30.596Z,437.00
2023-03-04T11:19:30.444Z,437.00
2023-03-04T11:20:30.366Z,435.00
2023-03-04T11:21:30.512Z,434.00
2023-03-04T11:22:30.884Z,433.00
2023-03-04T11:23:30.881Z,431.00
2023-03-04T11:24:31.173Z,431.00
2023-03-04T11:25:31.089Z,431.00
2023-03-04T11:26:31.554Z,431.00
2023-03-04T11:27:31.359Z,430.00
2023-03-04T11:28:32.429Z,428.00
2023-03-04T11:29:31.746Z,427.00
2023-03-04T11:30:32.179Z,429.00
2023-03-04T11:31:31.860Z,430.00
2023-03-04T11:32:32.223Z,431.00
2023-03-04T11:33:32.377Z,434.00
2023-03-04T11:34:32.328Z,434.00
2023-03-04T11:37:52.628Z,447.00
2023-03-04T11:38:49.007Z,450.00
2023-03-04T11:39:48.920Z,446.00
2023-03-04T11:40:50.024Z,445.00
2023-03-04T11:41:49.625Z,443.00
2023-03-04T11:42:50.253Z,443.00
2023-03-04T11:43:49.664Z,443.00
2023-03-04T11:44:49.621Z,441.00
2023-03-04T11:45:49.697Z,441.00
2023-03-04T11:46:49.800Z,437.00
2023-03-04T11:47:50.324Z,436.00
2023-03-04T11:48:50.420Z,436.00
2023-03-04T11:49:50.427Z,435.00
2023-03-04T11:50:51.251Z,432.00
2023-03-04T11:51:50.627Z,433.00
2023-03-04T11:52:50.858Z,434.00
2023-03-04T11:53:50.761Z,432.00
2023-03-04T11:54:51.096Z,431.00
2023-03-04T11:55:50.987Z,430.00
2023-03-04T11:56:51.063Z,428.00
2023-03-04T11:57:51.142Z,429.00
2023-03-04T11:58:51.521Z,432.00
2023-03-04T11:59:51.733Z,432.00
2023-03-04T12:00:51.631Z,430.00
2023-03-04T12:01:51.753Z,432.00
2023-03-04T12:02:52.440Z,435.00
2023-03-04T12:03:52.285Z,437.00
2023-03-04T12:04:52.301Z,436.00
2023-03-04T12:05:52.581Z,434.00
2023-03-04T12:06:52.482Z,434.00
2023-03-04T12:07:52.701Z,436.00
2023-03-04T12:08:52.674Z,434.00
2023-03-04T12:09:52.919Z,437.00
2023-03-04T12:10:53.968Z,436.00
2023-03-04T12:11:53.247Z,436.00
2023-03-04T12:12:53.671Z,434.00
2023-03-04T12:13:53.570Z,432.00
2023-03-04T12:14:53.980Z,430.00
2023-03-04T12:15:53.846Z,430.00
2023-03-04T12:16:53.731Z,433.00
2023-03-04T12:17:54.107Z,432.00
2023-03-04T12:18:55.220Z,430.00
2023-03-04T12:19:54.161Z,430.00
2023-03-04T12:20:55.267Z,431.00
2023-03-04T12:21:55.258Z,430.00
2023-03-04T12:22:54.475Z,427.00
2023-03-04T12:23:54.947Z,425.00
2023-03-04T12:24:54.734Z,425.00
2023-03-04T12:25:56.216Z,424.00
2023-03-04T12:26:56.292Z,425.00
2023-03-04T12:27:56.078Z,426.00
2023-03-04T12:28:56.277Z,425.00
2023-03-04T12:29:56.590Z,424.00
2023-03-04T12:30:56.695Z,424.00
2023-03-04T12:31:55.666Z,424.00
2023-03-04T12:32:55.783Z,427.00
2023-03-04T12:33:55.944Z,426.00
2023-03-04T12:34:56.972Z,424.00
2023-03-04T12:35:57.750Z,423.00
2023-03-04T12:36:57.757Z,422.00
2023-03-04T12:37:57.853Z,422.00
2023-03-04T12:38:56.537Z,422.00
2023-03-04T12:39:56.704Z,418.00
2023-03-04T12:40:57.913Z,418.00
2023-03-04T12:41:57.524Z,418.00
2023-03-04T12:42:57.524Z,419.00
2023-03-04T12:43:57.541Z,420.00
2023-03-04T12:44:58.784Z,419.00
2023-03-04T12:45:58.790Z,419.00
2023-03-04T12:46:58.792Z,420.00
2023-03-04T12:47:58.904Z,420.00
2023-03-04T12:48:58.793Z,418.00
2023-03-04T12:49:57.823Z,417.00
2023-03-04T12:50:58.104Z,418.00
2023-03-04T12:51:58.355Z,420.00
2023-03-04T12:52:59.223Z,417.00
2023-03-04T12:53:58.832Z,416.00
2023-03-04T12:54:58.841Z,417.00
2023-03-04T12:55:58.844Z,418.00
2023-03-04T12:59:16.217Z,453.00
2023-03-04T13:00:15.739Z,444.00
2023-03-04T13:01:15.341Z,442.00
2023-03-04T13:02:17.202Z,440.00
2023-03-04T13:03:16.163Z,439.00
2023-03-04T13:04:17.146Z,439.00
2023-03-04T13:05:17.046Z,439.00
2023-03-04T13:06:17.433Z,438.00
2023-03-04T13:07:17.508Z,437.00
2023-03-04T13:08:16.338Z,437.00
2023-03-04T13:09:17.453Z,437.00
2023-03-04T13:10:17.990Z,434.00
2023-03-04T13:11:17.796Z,436.00
2023-03-04T13:12:16.946Z,437.00
2023-03-04T13:13:17.108Z,437.00
2023-03-04T13:14:18.210Z,438.00
2023-03-04T13:15:18.819Z,438.00
2023-03-04T13:16:17.945Z,437.00
2023-03-04T13:17:17.693Z,435.00
2023-03-04T13:18:17.938Z,433.00
2023-03-04T13:19:18.350Z,431.00
2023-03-04T13:20:18.582Z,430.00
2023-03-04T13:21:20.071Z,429.00
2023-03-04T13:22:19.285Z,428.00
2023-03-04T13:23:19.911Z,425.00
2023-03-04T13:24:20.036Z,424.00
2023-03-04T13:25:19.850Z,424.00
2023-03-04T13:26:20.121Z,425.00
2023-03-04T13:27:19.091Z,426.00
2023-03-04T13:28:19.216Z,426.00
2023-03-04T13:29:19.380Z,428.00
2023-03-04T13:30:19.851Z,426.00
2023-03-04T13:31:21.403Z,427.00
2023-03-04T13:32:20.732Z,425.00
2023-03-04T13:33:19.971Z,425.00
2023-03-04T13:34:20.592Z,424.00
2023-03-04T13:35:20.128Z,424.00
2023-03-04T13:36:20.508Z,426.00
2023-03-04T13:37:20.836Z,424.00
2023-03-04T13:38:20.597Z,422.00
2023-03-04T13:39:21.047Z,420.00
2023-03-04T13:40:20.847Z,423.00
2023-03-04T13:41:22.676Z,423.00
2023-03-04T13:42:22.094Z,423.00
2023-03-04T13:43:22.727Z,419.00
2023-03-04T13:44:22.806Z,417.00
2023-03-04T13:45:22.496Z,420.00
2023-03-04T13:46:21.919Z,420.00
2023-03-04T13:47:22.735Z,420.00
2023-03-04T13:48:22.928Z,420.00
2023-03-04T13:49:23.068Z,421.00
2023-03-04T13:50:23.970Z,422.00
2023-03-04T13:51:29.602Z,423.00
2023-03-04T13:52:25.054Z,422.00
2023-03-04T13:53:22.995Z,422.00
2023-03-04T13:54:23.604Z,423.00
2023-03-04T13:55:24.114Z,424.00
2023-03-04T13:56:23.010Z,427.00
2023-03-04T13:57:24.225Z,427.00
2023-03-04T13:58:24.323Z,431.00
2023-03-04T13:59:24.435Z,430.00
2023-03-04T14:00:25.272Z,432.00
2023-03-04T14:01:25.286Z,433.00
2023-03-04T14:02:25.303Z,433.00
2023-03-04T14:03:24.781Z,432.00
2023-03-04T14:04:23.993Z,430.00
2023-03-04T14:05:25.101Z,429.00
2023-03-04T14:06:24.592Z,429.00
2023-03-04T14:07:24.698Z,427.00
2023-03-04T14:08:25.553Z,428.00
2023-03-04T14:09:26.262Z,428.00
2023-03-04T14:10:26.642Z,428.00
2023-03-04T14:11:25.953Z,427.00
2023-03-04T14:12:25.994Z,426.00
2023-03-04T14:13:25.152Z,427.00
2023-03-04T14:14:26.282Z,428.00
2023-03-04T14:15:25.322Z,428.00
2023-03-04T14:16:25.607Z,429.00
2023-03-04T14:17:26.050Z,429.00
2023-03-04T14:18:26.903Z,429.00
2023-03-04T14:19:26.945Z,427.00
2023-03-04T14:20:27.034Z,425.00
2023-03-04T14:23:42.410Z,431.00
2023-03-04T14:24:43.631Z,432.00
2023-03-04T14:25:42.626Z,439.00
2023-03-04T14:26:42.726Z,439.00
2023-03-04T14:27:43.070Z,439.00
2023-03-04T14:28:43.386Z,437.00
2023-03-04T14:29:44.618Z,435.00
2023-03-04T14:30:44.886Z,436.00
2023-03-04T14:31:44.871Z,438.00
2023-03-04T14:32:46.853Z,437.00
2023-03-04T14:33:43.686Z,437.00
2023-03-04T14:34:44.824Z,436.00
2023-03-04T14:35:44.951Z,435.00
2023-03-04T14:36:44.156Z,435.00
2023-03-04T14:37:45.703Z,437.00
2023-03-04T14:38:47.236Z,437.00
2023-03-04T14:39:45.012Z,436.00
2023-03-04T14:40:45.635Z,435.00
2023-03-04T14:41:45.916Z,435.00
2023-03-04T14:42:46.033Z,433.00
2023-03-04T14:43:45.527Z,432.00
2023-03-04T14:44:48.499Z,433.00
2023-03-04T14:45:47.313Z,434.00
2023-03-04T14:46:56.906Z,436.00
2023-03-04T14:47:46.989Z,437.00
2023-03-04T14:48:46.170Z,435.00
2023-03-04T14:49:46.896Z,434.00
2023-03-04T14:50:46.276Z,435.00
2023-03-04T14:51:47.515Z,434.00
2023-03-04T14:52:47.234Z,432.00
2023-03-04T14:53:46.517Z,434.00
2023-03-04T14:54:47.618Z,435.00
2023-03-04T14:55:47.728Z,433.00
2023-03-04T14:56:46.874Z,434.00
2023-03-04T14:57:47.908Z,435.00
2023-03-04T14:58:48.051Z,435.00
2023-03-04T14:59:47.701Z,434.00
2023-03-04T15:00:47.760Z,435.00
2023-03-04T15:01:47.688Z,432.00
2023-03-04T15:02:47.706Z,429.00
2023-03-04T15:03:47.839Z,429.00
2023-03-04T15:04:48.821Z,429.00
2023-03-04T15:05:49.370Z,434.00
2023-03-04T15:06:49.057Z,437.00
2023-03-04T15:07:49.773Z,436.00
2023-03-04T15:08:50.075Z,435.00
2023-03-04T15:09:48.437Z,435.00
2023-03-04T15:10:50.115Z,437.00
2023-03-04T15:11:49.707Z,434.00
2023-03-04T15:12:49.326Z,435.00
2023-03-04T15:13:49.425Z,434.00
2023-03-04T15:14:50.066Z,435.00
2023-03-04T15:15:50.286Z,434.00
2023-03-04T15:16:51.409Z,434.00
2023-03-04T15:17:51.155Z,431.00
2023-03-04T15:18:49.957Z,432.00
2023-03-04T15:19:51.444Z,431.00
2023-03-04T15:20:50.064Z,432.00
2023-03-04T15:21:50.976Z,431.00
2023-03-04T15:22:50.695Z,430.00
2023-03-04T15:23:51.139Z,428.00
2023-03-04T15:24:51.300Z,429.00
2023-03-04T15:25:51.646Z,428.00
2023-03-04T15:26:50.820Z,429.00
2023-03-04T15:27:51.681Z,427.00
2023-03-04T15:28:51.792Z,428.00
2023-03-04T15:29:52.278Z,431.00
2023-03-04T15:30:51.265Z,434.00
2023-03-04T15:31:52.261Z,435.00
2023-03-04T15:32:52.393Z,435.00
2023-03-04T15:33:52.808Z,434.00
2023-03-04T15:34:51.705Z,434.00
2023-03-04T15:35:53.001Z,435.00
2023-03-04T15:36:52.224Z,435.00
2023-03-04T15:37:52.449Z,436.00
2023-03-04T15:38:52.355Z,432.00
2023-03-04T15:39:53.776Z,432.00
2023-03-04T15:40:54.577Z,433.00
2023-03-04T15:41:52.699Z,434.00
2023-03-04T15:42:52.986Z,434.00
2023-03-04T15:43:53.424Z,436.00
2023-03-04T15:44:54.085Z,436.00
2023-03-04T15:48:39.628Z,453.00
2023-03-04T15:49:10.082Z,440.00
2023-03-04T15:50:10.742Z,440.00
2023-03-04T15:51:10.455Z,441.00
2023-03-04T15:52:10.450Z,439.00
2023-03-04T15:53:10.770Z,437.00
2023-03-04T15:54:10.798Z,436.00
2023-03-04T15:55:11.899Z,431.00
2023-03-04T15:56:11.320Z,429.00
2023-03-04T15:57:12.130Z,426.00
2023-03-04T15:58:10.479Z,428.00
2023-03-04T15:59:10.604Z,426.00
2023-03-04T16:00:11.626Z,429.00
2023-03-04T16:01:11.052Z,427.00
2023-03-04T16:12:31.249Z,457.00
2023-03-04T16:13:32.419Z,438.00
2023-03-04T16:14:31.466Z,439.00
2023-03-04T16:15:31.628Z,437.00
2023-03-04T16:16:33.562Z,436.00
2023-03-04T16:17:31.812Z,439.00
2023-03-04T16:18:33.007Z,438.00
2023-03-04T16:19:33.038Z,436.00
2023-03-04T16:20:32.230Z,434.00
2023-03-04T16:21:33.776Z,432.00
2023-03-04T16:22:32.457Z,431.00
2023-03-04T16:23:32.627Z,434.00
2023-03-04T16:24:32.970Z,436.00
2023-03-04T16:25:32.842Z,436.00
2023-03-04T16:26:34.164Z,436.00
2023-03-04T16:27:34.538Z,435.00
2023-03-04T16:28:34.239Z,436.00
2023-03-04T16:29:34.573Z,434.00
2023-03-04T16:30:34.525Z,433.00
2023-03-04T16:31:34.631Z,431.00
2023-03-04T16:32:34.993Z,433.00
2023-03-04T16:33:34.855Z,432.00
2023-03-04T16:34:34.472Z,432.00
2023-03-04T16:35:34.497Z,430.00
2023-03-04T16:36:34.541Z,430.00
2023-03-04T16:37:34.597Z,429.00
2023-03-04T16:38:34.731Z,428.00
2023-03-04T16:39:36.325Z,429.00
2023-03-04T16:40:34.938Z,427.00
2023-03-04T16:41:36.024Z,425.00
2023-03-04T16:42:36.374Z,423.00
2023-03-04T16:43:35.693Z,424.00
2023-03-04T16:44:36.384Z,425.00
2023-03-04T16:45:37.393Z,425.00
2023-03-04T16:46:36.974Z,422.00
2023-03-04T16:47:37.536Z,422.00
2023-03-04T16:48:37.432Z,425.00
2023-03-04T16:49:37.128Z,426.00
2023-03-04T16:50:37.315Z,427.00
2023-03-04T16:51:37.371Z,427.00
2023-03-04T16:52:37.483Z,426.00
2023-03-04T16:53:37.728Z,428.00
2023-03-04T16:54:38.742Z,427.00
2023-03-04T16:55:38.810Z,427.00
2023-03-04T16:56:37.370Z,426.00
2023-03-04T16:57:37.373Z,425.00
2023-03-04T16:58:37.481Z,424.00
2023-03-04T16:59:38.434Z,424.00
2023-03-04T17:00:38.503Z,424.00
2023-03-04T17:01:37.828Z,426.00
2023-03-04T17:02:37.863Z,427.00
2023-03-04T17:03:38.883Z,428.00
2023-03-04T17:04:38.487Z,427.00
2023-03-04T17:05:38.650Z,427.00
2023-03-04T17:06:38.404Z,426.00
2023-03-04T17:07:40.204Z,425.00